Time;durP1;ratioP1;P1;durP2;ratioP2;P2;SDS_P1;SDS_P2;PMS_P1;PMS_P2;Temp;Humidity;BMP_temperature;BMP_pressure;BME280_temperature;BME280_humidity;BME280_pressure;Samples;Min_cycle;Max_cycle;Signal;HPM_P1;HPM_P2
2024/01/01 00:00:36;;;;;;;11.90;10.02;;;18.20;61.00;;;;;;5080849;28;20184;-71
2024/01/01 00:03:02;;;;;;;11.55;10.20;;;18.20;61.10;;;;;;5097219;28;20270;-71
2024/01/01 00:05:29;;;;;;;13.23;9.82;;;18.20;61.00;;;;;;5077290;28;20192;-71
2024/01/01 00:07:54;;;;;;;12.25;9.40;;;18.20;61.00;;;;;;5093749;28;20227;-71
2024/01/01 00:10:20;;;;;;;11.00;9.93;;;18.20;61.00;;;;;;5095360;28;20185;-70
2024/01/01 00:12:46;;;;;;;10.25;9.23;;;18.20;61.10;;;;;;5093457;28;20219;-71
2024/01/01 00:15:13;;;;;;;9.90;8.90;;;18.20;61.10;;;;;;5109151;28;20275;-71
2024/01/01 00:17:40;;;;;;;10.90;9.02;;;18.20;61.00;;;;;;5100769;28;20196;-71
2024/01/01 00:20:08;;;;;;;10.23;9.13;;;18.20;61.10;;;;;;5087547;28;20253;-71
2024/01/01 00:22:34;;;;;;;10.40;8.55;;;18.20;61.00;;;;;;5093529;28;20213;-72
2024/01/01 00:25:00;;;;;;;11.38;8.98;;;18.20;61.00;;;;;;5097099;28;20193;-70
2024/01/01 00:27:26;;;;;;;11.60;8.80;;;18.20;61.00;;;;;;5100267;28;20231;-71
2024/01/01 00:29:52;;;;;;;9.95;8.70;;;18.20;61.00;;;;;;5073674;28;20189;-71
2024/01/01 00:32:18;;;;;;;9.35;7.70;;;18.20;60.90;;;;;;5082309;28;20200;-71
2024/01/01 00:34:46;;;;;;;10.25;8.75;;;18.20;61.00;;;;;;5096780;28;20263;-71
2024/01/01 00:37:12;;;;;;;9.50;8.02;;;18.20;61.00;;;;;;5095119;28;20196;-71
2024/01/01 00:39:38;;;;;;;8.93;7.95;;;18.20;60.90;;;;;;5084113;28;20184;-71
2024/01/01 00:42:05;;;;;;;8.45;7.38;;;18.20;61.70;;;;;;5099395;28;20194;-71
2024/01/01 00:44:32;;;;;;;8.15;7.28;;;18.20;60.90;;;;;;5099655;28;20187;-74
2024/01/01 00:46:58;;;;;;;8.35;7.53;;;18.20;60.90;;;;;;5073033;28;20213;-71
2024/01/01 00:49:24;;;;;;;8.48;7.57;;;18.20;60.90;;;;;;5098501;28;20184;-71
2024/01/01 00:51:50;;;;;;;8.80;7.22;;;18.20;60.90;;;;;;5079164;28;20181;-71
2024/01/01 00:54:16;;;;;;;8.60;7.28;;;18.20;60.90;;;;;;5079013;28;20201;-71
2024/01/01 00:56:42;;;;;;;7.65;6.95;;;18.20;60.90;;;;;;5093886;28;20189;-69
2024/01/01 00:59:08;;;;;;;7.38;6.68;;;18.20;60.90;;;;;;5093882;28;20232;-70
2024/01/01 01:01:34;;;;;;;7.65;6.85;;;18.20;61.00;;;;;;5079769;28;20262;-71
2024/01/01 01:04:00;;;;;;;10.63;7.15;;;18.20;60.90;;;;;;5093877;28;20261;-70
2024/01/01 01:06:25;;;;;;;7.45;6.75;;;18.20;60.90;;;;;;5098774;28;20201;-71
2024/01/01 01:08:51;;;;;;;7.40;6.65;;;18.20;60.90;;;;;;5088395;28;20672;-71
2024/01/01 01:11:17;;;;;;;8.02;6.32;;;18.20;61.00;;;;;;5097628;28;20265;-71
2024/01/01 01:13:43;;;;;;;7.35;6.45;;;18.20;60.90;;;;;;5101690;28;20764;-71
2024/01/01 01:16:09;;;;;;;7.18;6.47;;;18.20;61.00;;;;;;5101438;28;20180;-71
2024/01/01 01:18:35;;;;;;;7.95;7.15;;;18.20;61.00;;;;;;5078865;28;20291;-71
2024/01/01 01:21:01;;;;;;;7.20;6.50;;;18.20;60.90;;;;;;5078680;28;20284;-71
2024/01/01 01:23:28;;;;;;;7.82;6.10;;;18.20;60.90;;;;;;5106782;28;20208;-71
2024/01/01 01:25:54;;;;;;;7.65;6.15;;;18.20;60.90;;;;;;5091257;28;20217;-71
2024/01/01 01:28:24;;;;;;;7.15;6.43;;;18.20;60.90;;;;;;5103867;28;20245;-71
2024/01/01 01:30:50;;;;;;;6.40;5.80;;;18.20;60.90;;;;;;5086175;28;20182;-70
2024/01/01 01:33:17;;;;;;;6.68;5.90;;;18.20;60.80;;;;;;5073551;28;20205;-71
2024/01/01 01:35:43;;;;;;;6.55;5.95;;;18.20;60.80;;;;;;5093849;28;20203;-72
2024/01/01 01:38:08;;;;;;;7.55;6.07;;;18.20;60.90;;;;;;5107902;28;20283;-71
2024/01/01 01:40:34;;;;;;;6.35;5.68;;;18.20;60.80;;;;;;5080892;28;20180;-71
2024/01/01 01:43:00;;;;;;;6.05;5.53;;;18.20;60.80;;;;;;5108148;28;20703;-71
2024/01/01 01:45:25;;;;;;;6.50;5.80;;;18.20;60.80;;;;;;5095186;28;20189;-72
2024/01/01 01:47:52;;;;;;;7.40;5.93;;;18.20;60.90;;;;;;5112312;27;20190;-72
2024/01/01 01:50:20;;;;;;;6.18;5.68;;;18.20;60.80;;;;;;5106188;28;20640;-71
2024/01/01 01:52:48;;;;;;;6.55;5.85;;;18.20;60.80;;;;;;5112097;27;20204;-71
2024/01/01 01:55:21;;;;;;;5.75;5.15;;;18.20;60.90;;;;;;5110234;28;20183;-71
2024/01/01 01:57:48;;;;;;;5.47;4.97;;;18.20;60.90;;;;;;5076155;28;20211;-71
2024/01/01 02:00:14;;;;;;;5.70;4.95;;;18.20;60.80;;;;;;5093860;28;20185;-71
2024/01/01 02:02:41;;;;;;;6.97;5.85;;;18.20;60.80;;;;;;5080263;28;20204;-72
2024/01/01 02:05:07;;;;;;;5.47;4.97;;;18.20;60.90;;;;;;5074349;28;20230;-71
2024/01/01 02:07:32;;;;;;;5.32;4.82;;;18.20;60.90;;;;;;5094352;28;20413;-71
2024/01/01 02:09:59;;;;;;;5.63;4.80;;;18.20;60.80;;;;;;5107674;28;20177;-71
2024/01/01 02:12:25;;;;;;;5.50;4.95;;;18.20;60.80;;;;;;5105510;28;20213;-72
2024/01/01 02:14:50;;;;;;;5.82;5.18;;;18.20;60.80;;;;;;5088650;28;20195;-71
2024/01/01 02:17:17;;;;;;;5.70;5.13;;;18.20;60.80;;;;;;5079382;28;20184;-71
2024/01/01 02:19:42;;;;;;;6.10;4.95;;;18.20;60.80;;;;;;5094576;28;20184;-71
2024/01/01 02:22:08;;;;;;;5.40;4.70;;;18.20;60.80;;;;;;5074588;28;20200;-71
2024/01/01 02:24:34;;;;;;;5.10;4.60;;;18.20;60.70;;;;;;5086575;28;20200;-71
2024/01/01 02:27:00;;;;;;;5.88;4.80;;;18.20;60.70;;;;;;5082553;28;20207;-72
2024/01/01 02:29:26;;;;;;;4.90;4.40;;;18.20;60.70;;;;;;5106888;28;20183;-71
2024/01/01 02:31:52;;;;;;;5.30;4.80;;;18.20;60.70;;;;;;5072477;28;20178;-71
2024/01/01 02:34:18;;;;;;;5.00;4.50;;;18.20;60.70;;;;;;5072812;28;20193;-71
2024/01/01 02:36:44;;;;;;;5.45;4.95;;;18.20;61.50;;;;;;5093329;28;20184;-71
2024/01/01 02:39:10;;;;;;;5.13;4.68;;;18.20;60.80;;;;;;5110016;27;20676;-71
2024/01/01 02:41:37;;;;;;;4.57;4.18;;;18.20;60.70;;;;;;5089859;28;20216;-71
2024/01/01 02:44:04;;;;;;;5.03;4.32;;;18.20;60.70;;;;;;5099704;28;20299;-71
2024/01/01 02:46:30;;;;;;;4.60;4.18;;;18.20;60.70;;;;;;5076484;28;20208;-71
2024/01/01 02:48:56;;;;;;;5.00;4.50;;;18.20;60.80;;;;;;5076514;28;20180;-72
2024/01/01 02:51:21;;;;;;;4.40;4.00;;;18.20;60.70;;;;;;5089685;28;20213;-71
2024/01/01 02:53:47;;;;;;;5.10;4.60;;;18.10;60.60;;;;;;5087645;28;20202;-71
2024/01/01 02:56:25;;;;;;;4.15;3.75;;;18.20;60.80;;;;;;5089363;28;20271;-71
2024/01/01 02:58:52;;;;;;;4.63;4.22;;;18.10;60.60;;;;;;5081957;28;20192;-71
2024/01/01 03:01:18;;;;;;;5.20;4.70;;;18.20;60.70;;;;;;5079450;28;20677;-71
2024/01/01 03:03:44;;;;;;;5.30;4.00;;;18.20;60.80;;;;;;5076679;28;20211;-71
2024/01/01 03:06:09;;;;;;;5.47;4.70;;;18.20;60.70;;;;;;5099220;28;20212;-70
2024/01/01 03:08:37;;;;;;;4.70;4.30;;;18.20;60.70;;;;;;5090797;28;20191;-71
2024/01/01 03:11:07;;;;;;;4.80;4.35;;;18.20;60.70;;;;;;5074048;28;20180;-71
2024/01/01 03:13:33;;;;;;;4.63;4.22;;;18.20;60.70;;;;;;5096926;28;20209;-71
2024/01/01 03:16:00;;;;;;;4.43;4.03;;;18.20;60.70;;;;;;5079554;28;20190;-71
2024/01/01 03:18:25;;;;;;;4.50;4.10;;;18.20;60.60;;;;;;5071388;28;20652;-71
2024/01/01 03:20:51;;;;;;;4.32;3.67;;;18.20;60.60;;;;;;5062437;28;20188;-71
2024/01/01 03:23:17;;;;;;;3.58;3.28;;;18.20;60.70;;;;;;5084005;28;20219;-71
2024/01/01 03:25:43;;;;;;;4.18;3.88;;;18.20;60.60;;;;;;5066098;28;20247;-71
2024/01/01 03:28:09;;;;;;;4.65;3.80;;;18.20;60.70;;;;;;5059739;28;20204;-70
2024/01/01 03:30:35;;;;;;;4.65;4.20;;;18.20;60.60;;;;;;5087822;28;20185;-71
2024/01/01 03:33:02;;;;;;;4.13;3.78;;;18.20;60.60;;;;;;5079077;28;20202;-72
2024/01/01 03:35:31;;;;;;;3.63;3.33;;;18.20;60.70;;;;;;5080400;28;20211;-71
2024/01/01 03:37:58;;;;;;;4.28;3.85;;;18.20;60.60;;;;;;5079519;28;20691;-71
2024/01/01 03:40:24;;;;;;;3.90;3.50;;;18.20;60.70;;;;;;5070652;28;20185;-71
2024/01/01 03:42:50;;;;;;;4.32;3.65;;;18.20;60.70;;;;;;5098357;28;20216;-72
2024/01/01 03:45:16;;;;;;;4.18;3.80;;;18.20;60.70;;;;;;5073816;28;20177;-71
2024/01/01 03:47:42;;;;;;;3.97;3.58;;;18.20;60.70;;;;;;5083815;28;20200;-71
2024/01/01 03:50:08;;;;;;;3.83;3.53;;;18.20;60.70;;;;;;5073848;28;20181;-72
2024/01/01 03:52:34;;;;;;;4.03;3.63;;;18.10;60.50;;;;;;5073286;28;20208;-70
2024/01/01 03:55:00;;;;;;;3.90;3.47;;;18.20;60.60;;;;;;5090732;28;20176;-70
2024/01/01 03:57:26;;;;;;;4.18;3.78;;;18.20;60.70;;;;;;5073292;28;20188;-71
2024/01/01 03:59:52;;;;;;;4.10;3.80;;;18.20;60.60;;;;;;5053755;28;20185;-72
2024/01/01 04:02:18;;;;;;;3.55;3.25;;;18.20;60.60;;;;;;5065919;28;20346;-71
2024/01/01 04:04:44;;;;;;;3.60;3.30;;;18.20;60.60;;;;;;5070782;28;20269;-71
2024/01/01 04:07:11;;;;;;;3.50;3.20;;;18.20;60.60;;;;;;5068754;28;20193;-71
2024/01/01 04:09:37;;;;;;;3.28;2.97;;;18.20;60.60;;;;;;5080793;28;20178;-71
2024/01/01 04:12:03;;;;;;;3.53;3.22;;;18.20;60.60;;;;;;5073617;28;20196;-71
2024/01/01 04:14:29;;;;;;;3.38;3.08;;;18.20;60.60;;;;;;5081113;28;20205;-71
2024/01/01 04:16:54;;;;;;;3.55;3.25;;;18.20;60.50;;;;;;5057646;28;20193;-71
2024/01/01 04:19:21;;;;;;;3.53;3.22;;;18.20;60.50;;;;;;5090396;28;20173;-71
2024/01/01 04:21:48;;;;;;;3.70;3.40;;;18.10;60.50;;;;;;5090083;28;20198;-71
2024/01/01 04:24:14;;;;;;;3.35;3.08;;;18.20;61.30;;;;;;5073392;28;20295;-71
2024/01/01 04:26:39;;;;;;;3.20;2.90;;;18.20;60.50;;;;;;5073252;28;20303;-71
2024/01/01 04:29:05;;;;;;;3.75;3.45;;;18.20;60.50;;;;;;5096169;28;20241;-71
2024/01/01 04:31:31;;;;;;;3.20;2.90;;;18.20;60.50;;;;;;5084475;28;20195;-71
2024/01/01 04:33:57;;;;;;;3.67;3.13;;;18.20;60.60;;;;;;5102952;28;20211;-71
2024/01/01 04:36:22;;;;;;;3.33;3.03;;;18.20;60.50;;;;;;5107059;28;20197;-71
2024/01/01 04:38:48;;;;;;;3.80;3.00;;;18.20;60.60;;;;;;5098220;28;20208;-71
2024/01/01 04:41:14;;;;;;;3.50;3.20;;;18.10;60.50;;;;;;5087780;28;20180;-71
2024/01/01 04:43:40;;;;;;;2.92;2.65;;;18.20;60.60;;;;;;5082402;28;20300;-71
2024/01/01 04:46:09;;;;;;;3.28;2.90;;;18.20;60.60;;;;;;5089257;28;20224;-71
2024/01/01 04:48:35;;;;;;;3.30;3.00;;;18.20;60.60;;;;;;5097817;28;20239;-71
2024/01/01 04:51:01;;;;;;;2.83;2.60;;;18.20;60.60;;;;;;5104072;28;20214;-71
2024/01/01 04:53:27;;;;;;;3.25;2.95;;;18.20;60.60;;;;;;5085408;28;20223;-71
2024/01/01 04:55:52;;;;;;;2.83;2.63;;;18.20;61.30;;;;;;5084749;28;20224;-71
2024/01/01 04:58:19;;;;;;;3.40;3.10;;;18.20;60.50;;;;;;5094810;28;20181;-71
2024/01/01 05:00:45;;;;;;;3.38;3.08;;;18.20;60.60;;;;;;5101574;28;20269;-71
2024/01/01 05:03:11;;;;;;;3.05;2.75;;;18.20;60.50;;;;;;5102291;28;20295;-71
2024/01/01 05:05:37;;;;;;;3.30;3.00;;;18.20;60.50;;;;;;5077005;28;20196;-71
2024/01/01 05:08:03;;;;;;;3.17;2.80;;;18.20;60.40;;;;;;5081896;28;20181;-71
2024/01/01 05:10:29;;;;;;;3.25;2.95;;;18.20;60.40;;;;;;5086586;28;20214;-70
2024/01/01 05:12:55;;;;;;;3.00;2.80;;;18.20;60.50;;;;;;5101047;28;20330;-71
2024/01/01 05:15:21;;;;;;;2.47;2.20;;;18.20;60.40;;;;;;5101507;28;20193;-71
2024/01/01 05:17:46;;;;;;;3.05;2.75;;;18.20;61.20;;;;;;5078689;28;20193;-71
2024/01/01 05:20:12;;;;;;;3.20;2.88;;;18.10;60.30;;;;;;5115426;27;20192;-71
2024/01/01 05:22:38;;;;;;;2.60;2.40;;;18.20;60.40;;;;;;5094234;28;20221;-71
2024/01/01 05:25:04;;;;;;;2.83;2.63;;;18.10;60.40;;;;;;5104494;28;20192;-71
2024/01/01 05:27:30;;;;;;;2.67;2.47;;;18.20;60.50;;;;;;5077818;28;20257;-71
2024/01/01 05:29:56;;;;;;;2.95;2.47;;;18.20;60.40;;;;;;5101127;28;20189;-71
2024/01/01 05:32:21;;;;;;;2.60;2.40;;;18.20;60.40;;;;;;5083605;28;20269;-71
2024/01/01 05:34:47;;;;;;;3.00;2.78;;;18.20;60.40;;;;;;5094654;28;20177;-72
2024/01/01 05:37:13;;;;;;;2.60;2.40;;;18.10;60.30;;;;;;5101733;28;20188;-70
2024/01/01 05:39:38;;;;;;;2.20;2.10;;;18.20;60.40;;;;;;5100027;28;20281;-70
2024/01/01 05:42:04;;;;;;;2.60;2.40;;;18.20;60.40;;;;;;5104635;28;20214;-71
2024/01/01 05:44:30;;;;;;;2.53;2.33;;;18.10;60.30;;;;;;5086987;28;20192;-71
2024/01/01 05:46:56;;;;;;;2.47;2.17;;;18.10;60.30;;;;;;5084355;28;20205;-72
2024/01/01 05:49:23;;;;;;;2.50;2.30;;;18.20;61.20;;;;;;5091254;28;20188;-71
2024/01/01 05:51:49;;;;;;;2.88;2.15;;;18.20;60.40;;;;;;5110296;28;20191;-71
2024/01/01 05:54:15;;;;;;;2.42;2.22;;;18.20;60.40;;;;;;5104392;28;20250;-71
2024/01/01 05:56:42;;;;;;;2.80;2.60;;;18.10;60.30;;;;;;5083097;28;20181;-72
2024/01/01 05:59:08;;;;;;;2.58;2.38;;;18.20;60.40;;;;;;5093082;28;20185;-71
2024/01/01 06:01:33;;;;;;;2.75;2.40;;;18.10;60.20;;;;;;5102263;28;20671;-71
2024/01/01 06:03:59;;;;;;;2.22;2.03;;;18.20;61.10;;;;;;5082167;28;20201;-71
2024/01/01 06:06:26;;;;;;;3.05;2.33;;;18.20;60.30;;;;;;5099196;28;20232;-71
2024/01/01 06:08:52;;;;;;;2.40;2.20;;;18.10;60.20;;;;;;5112167;28;20189;-71
2024/01/01 06:11:17;;;;;;;2.50;2.30;;;18.20;60.40;;;;;;5092654;28;20176;-71
2024/01/01 06:13:45;;;;;;;1.90;1.80;;;18.20;60.40;;;;;;5111182;27;20566;-71
2024/01/01 06:16:13;;;;;;;3.33;2.42;;;18.20;60.30;;;;;;5102738;28;20195;-71
2024/01/01 06:18:39;;;;;;;2.30;2.10;;;18.20;60.30;;;;;;5101228;28;20214;-72
2024/01/01 06:21:05;;;;;;;2.55;2.35;;;18.10;60.20;;;;;;5098214;28;20178;-71
2024/01/01 06:23:31;;;;;;;2.10;1.90;;;18.20;60.30;;;;;;5082000;28;20257;-71
2024/01/01 06:25:56;;;;;;;1.90;1.80;;;18.20;60.30;;;;;;5099572;28;20212;-71
2024/01/01 06:28:22;;;;;;;2.17;1.98;;;18.10;60.20;;;;;;5100408;28;20189;-71
2024/01/01 06:30:48;;;;;;;2.35;2.15;;;18.10;60.20;;;;;;5080185;28;20193;-71
2024/01/01 06:33:14;;;;;;;2.20;1.83;;;18.10;60.20;;;;;;5096974;28;20255;-71
2024/01/01 06:35:40;;;;;;;2.78;1.98;;;18.10;60.20;;;;;;5083144;28;20189;-71
2024/01/01 06:38:06;;;;;;;2.17;1.95;;;18.10;60.20;;;;;;5091773;28;20180;-72
2024/01/01 06:40:31;;;;;;;2.35;2.15;;;18.10;61.00;;;;;;5091807;28;20627;-71
2024/01/01 06:42:57;;;;;;;2.20;2.03;;;18.20;60.30;;;;;;5094670;28;20212;-71
2024/01/01 06:45:23;;;;;;;2.15;1.92;;;18.10;60.20;;;;;;5082378;28;20196;-71
2024/01/01 06:47:49;;;;;;;2.40;2.05;;;18.10;60.20;;;;;;5092266;28;20213;-71
2024/01/01 06:50:15;;;;;;;1.95;1.75;;;18.20;60.30;;;;;;5097132;28;20188;-71
2024/01/01 06:52:41;;;;;;;2.33;2.13;;;18.10;60.20;;;;;;5082108;28;20201;-71
2024/01/01 06:55:07;;;;;;;2.28;1.73;;;18.10;60.20;;;;;;5079741;28;20182;-71
2024/01/01 06:57:33;;;;;;;1.85;1.70;;;18.10;60.10;;;;;;5100459;28;20191;-72
2024/01/01 06:59:59;;;;;;;1.60;1.50;;;18.10;60.10;;;;;;5098122;28;20584;-71
2024/01/01 07:02:28;;;;;;;2.42;2.22;;;18.20;60.20;;;;;;5098992;28;20208;-71
2024/01/01 07:04:54;;;;;;;1.98;1.58;;;18.20;60.20;;;;;;5098710;28;20193;-71
2024/01/01 07:07:19;;;;;;;1.90;1.73;;;18.20;60.10;;;;;;5092408;28;20258;-71
2024/01/01 07:09:45;;;;;;;2.33;2.13;;;18.20;60.20;;;;;;5083339;28;20185;-72
2024/01/01 07:12:27;;;;;;;2.05;1.85;;;18.10;60.10;;;;;;5104607;28;20215;-71
2024/01/01 07:14:54;;;;;;;1.98;1.50;;;18.20;60.20;;;;;;5096426;28;20213;-69
2024/01/01 07:17:20;;;;;;;2.10;1.70;;;18.20;60.20;;;;;;5097461;28;20286;-71
2024/01/01 07:19:46;;;;;;;1.60;1.50;;;18.10;60.10;;;;;;5104362;28;20237;-70
2024/01/01 07:22:13;;;;;;;2.67;1.80;;;18.20;60.20;;;;;;5096355;28;20188;-72
2024/01/01 07:24:39;;;;;;;2.10;1.90;;;18.20;60.20;;;;;;5106424;28;20219;-71
2024/01/01 07:27:06;;;;;;;2.33;1.67;;;18.10;60.10;;;;;;5102527;28;20234;-71
2024/01/01 07:29:32;;;;;;;1.63;1.52;;;18.10;60.10;;;;;;5091638;28;20698;-72
2024/01/01 07:31:58;;;;;;;2.25;1.90;;;18.10;60.10;;;;;;5079561;28;20223;-71
2024/01/01 07:34:25;;;;;;;1.92;1.80;;;18.10;60.10;;;;;;5091092;28;20189;-71
2024/01/01 07:36:54;;;;;;;3.00;1.63;;;18.10;60.00;;;;;;5095994;28;20195;-70
2024/01/01 07:39:20;;;;;;;1.70;1.50;;;18.10;60.10;;;;;;5080163;28;20193;-71
2024/01/01 07:41:51;;;;;;;1.70;1.55;;;18.10;60.20;;;;;;5080005;28;20231;-71
2024/01/01 07:44:17;;;;;;;2.08;1.33;;;18.20;60.20;;;;;;5088534;28;20298;-71
2024/01/01 07:46:43;;;;;;;2.38;1.60;;;18.20;60.20;;;;;;5103747;28;20207;-71
2024/01/01 07:49:09;;;;;;;1.58;1.48;;;18.10;60.10;;;;;;5081933;28;20276;-71
2024/01/01 07:51:35;;;;;;;1.65;1.52;;;18.10;60.10;;;;;;5077405;28;20240;-71
2024/01/01 07:54:01;;;;;;;1.60;1.50;;;18.10;60.10;;;;;;5103568;28;20205;-71
2024/01/01 07:56:28;;;;;;;1.63;1.40;;;18.20;60.10;;;;;;5099283;28;20198;-71
2024/01/01 07:58:54;;;;;;;1.60;1.50;;;18.20;60.10;;;;;;5103501;28;20200;-72
2024/01/01 08:01:20;;;;;;;1.85;1.50;;;18.10;60.00;;;;;;5124939;28;20191;-71
2024/01/01 08:03:46;;;;;;;2.25;1.60;;;18.10;60.00;;;;;;5096522;28;20208;-71
2024/01/01 08:06:13;;;;;;;1.85;1.70;;;18.20;60.20;;;;;;5074655;28;20192;-71
2024/01/01 08:08:40;;;;;;;1.50;1.40;;;18.10;60.00;;;;;;5074762;28;20192;-71
2024/01/01 08:11:06;;;;;;;1.90;1.80;;;18.10;60.10;;;;;;5092209;28;20272;-71
2024/01/01 08:13:34;;;;;;;2.03;1.70;;;18.20;60.10;;;;;;5106293;28;20216;-71
2024/01/01 08:16:00;;;;;;;1.88;1.70;;;18.10;60.10;;;;;;5100055;28;20185;-71
2024/01/01 08:18:26;;;;;;;1.55;1.45;;;18.10;60.00;;;;;;5096244;28;20192;-72
2024/01/01 08:20:51;;;;;;;1.83;1.52;;;18.10;60.00;;;;;;5073503;28;20216;-70
2024/01/01 08:23:17;;;;;;;2.65;1.83;;;18.10;60.10;;;;;;5099886;28;20204;-71
2024/01/01 08:25:43;;;;;;;1.50;1.40;;;18.20;60.10;;;;;;5096649;28;20245;-71
2024/01/01 08:28:08;;;;;;;1.60;1.50;;;18.10;60.00;;;;;;5098969;28;20178;-71
2024/01/01 08:30:34;;;;;;;1.55;1.45;;;18.10;60.00;;;;;;5091280;28;20350;-72
2024/01/01 08:33:00;;;;;;;2.08;1.50;;;18.10;60.00;;;;;;5083293;28;20209;-71
2024/01/01 08:35:26;;;;;;;1.90;1.20;;;18.20;60.20;;;;;;5099672;28;20220;-70
2024/01/01 08:37:52;;;;;;;1.42;1.33;;;18.20;60.20;;;;;;5100332;28;20197;-70
2024/01/01 08:40:18;;;;;;;1.60;1.35;;;18.10;60.90;;;;;;5122051;27;20187;-71
2024/01/01 08:42:44;;;;;;;1.42;1.33;;;18.20;60.10;;;;;;5099886;28;20250;-71
2024/01/01 08:45:10;;;;;;;1.65;1.52;;;18.10;60.10;;;;;;5091400;28;20188;-71
2024/01/01 08:47:36;;;;;;;1.52;1.40;;;18.10;60.00;;;;;;5095506;28;20205;-71
2024/01/01 08:50:02;;;;;;;1.90;1.20;;;18.20;60.10;;;;;;5095359;28;20655;-71
2024/01/01 08:52:28;;;;;;;1.90;1.30;;;18.20;60.10;;;;;;5076888;28;20552;-71
2024/01/01 08:54:53;;;;;;;1.42;1.33;;;18.20;60.20;;;;;;5073851;28;20419;-71
2024/01/01 08:57:19;;;;;;;1.30;1.20;;;18.20;60.10;;;;;;5102482;28;20183;-69
2024/01/01 08:59:45;;;;;;;1.40;1.30;;;18.20;60.10;;;;;;5104205;28;20575;-71
2024/01/01 09:02:10;;;;;;;1.75;1.65;;;18.20;60.00;;;;;;5101324;28;20668;-71
2024/01/01 09:04:36;;;;;;;1.83;1.45;;;18.20;60.10;;;;;;5098917;28;20188;-71
2024/01/01 09:07:03;;;;;;;1.75;1.35;;;18.20;60.10;;;;;;5094054;28;20208;-71
2024/01/01 09:09:29;;;;;;;1.08;1.00;;;18.20;60.00;;;;;;5081630;28;20180;-71
2024/01/01 09:11:56;;;;;;;1.20;1.10;;;18.20;60.00;;;;;;5084418;28;20189;-71
2024/01/01 09:14:22;;;;;;;1.40;1.30;;;18.20;60.00;;;;;;5098133;28;20243;-71
2024/01/01 09:16:48;;;;;;;1.40;1.20;;;18.20;60.00;;;;;;5073165;28;20273;-71
2024/01/01 09:19:17;;;;;;;1.30;1.20;;;18.20;60.10;;;;;;5102106;28;20269;-71
2024/01/01 09:21:46;;;;;;;1.58;1.48;;;18.20;60.10;;;;;;5098768;28;20184;-71
2024/01/01 09:24:12;;;;;;;1.13;1.02;;;18.20;60.10;;;;;;5097487;28;20205;-71
2024/01/01 09:26:39;;;;;;;1.35;1.25;;;18.20;60.10;;;;;;5097332;28;20222;-71
2024/01/01 09:29:06;;;;;;;2.03;1.40;;;18.20;60.10;;;;;;5089026;28;20219;-71
2024/01/01 09:31:32;;;;;;;1.48;1.38;;;18.20;60.10;;;;;;5081355;28;20295;-71
2024/01/01 09:34:00;;;;;;;2.35;1.60;;;18.20;60.10;;;;;;5088770;28;20205;-72
2024/01/01 09:36:34;;;;;;;1.30;1.20;;;18.20;60.10;;;;;;5102627;28;20198;-72
2024/01/01 09:39:00;;;;;;;1.60;1.20;;;18.20;60.10;;;;;;5089053;28;20199;-72
2024/01/01 09:41:26;;;;;;;1.52;1.42;;;18.20;60.00;;;;;;5099383;28;20184;-71
2024/01/01 09:43:53;;;;;;;1.17;1.00;;;18.20;60.00;;;;;;5077549;28;20209;-71
2024/01/01 09:46:20;;;;;;;1.33;1.10;;;18.20;60.00;;;;;;5094115;28;20211;-72
2024/01/01 09:48:46;;;;;;;1.20;1.10;;;18.20;60.00;;;;;;5117257;27;20241;-71
2024/01/01 09:51:13;;;;;;;1.90;1.33;;;18.20;60.00;;;;;;5082362;28;20269;-71
2024/01/01 09:53:39;;;;;;;1.30;1.20;;;18.20;60.00;;;;;;5082612;28;20268;-71
2024/01/01 09:56:06;;;;;;;1.90;1.30;;;18.30;60.10;;;;;;5079893;28;20373;-72
2024/01/01 09:58:45;;;;;;;1.00;0.90;;;18.20;60.10;;;;;;5085786;28;20177;-71
2024/01/01 10:01:12;;;;;;;1.00;1.00;;;18.30;60.10;;;;;;5098234;28;20261;-71
2024/01/01 10:03:39;;;;;;;1.40;1.30;;;18.30;60.20;;;;;;5098861;28;20212;-68
2024/01/01 10:06:11;;;;;;;1.40;1.30;;;18.30;60.20;;;;;;5082190;28;20218;-70
2024/01/01 10:08:38;;;;;;;1.35;1.25;;;18.30;60.20;;;;;;5082377;28;20188;-71
2024/01/01 10:11:20;;;;;;;1.67;1.30;;;18.20;60.10;;;;;;5091915;28;20188;-70
2024/01/01 10:13:47;;;;;;;1.63;1.40;;;18.30;60.20;;;;;;5095264;28;20731;-69
2024/01/01 10:16:28;;;;;;;1.33;1.00;;;18.30;60.20;;;;;;5083180;28;20205;-71
2024/01/01 10:18:57;;;;;;;1.52;1.33;;;18.30;60.20;;;;;;5074720;28;20192;-71
2024/01/01 10:21:30;;;;;;;1.33;1.20;;;18.30;60.20;;;;;;5100113;28;20204;-70
2024/01/01 10:23:58;;;;;;;1.30;1.20;;;18.30;60.20;;;;;;5096235;28;20217;-69
2024/01/01 10:26:24;;;;;;;1.35;1.08;;;18.30;60.20;;;;;;5100375;28;20200;-69
2024/01/01 10:28:51;;;;;;;1.88;1.40;;;18.30;60.20;;;;;;5095816;28;20187;-71
2024/01/01 10:31:17;;;;;;;1.50;1.17;;;18.30;60.20;;;;;;5081475;28;20216;-71
2024/01/01 10:33:48;;;;;;;1.40;1.30;;;18.30;60.20;;;;;;5075573;28;20269;-71
2024/01/01 10:36:16;;;;;;;1.25;1.10;;;18.30;60.20;;;;;;5094083;28;20247;-71
2024/01/01 10:38:45;;;;;;;1.75;1.00;;;18.30;60.20;;;;;;5098642;28;20188;-71
2024/01/01 10:41:12;;;;;;;1.33;1.10;;;18.30;60.20;;;;;;5098096;28;20194;-70
2024/01/01 10:43:40;;;;;;;1.45;1.35;;;18.30;60.20;;;;;;5079331;28;20250;-70
2024/01/01 10:46:06;;;;;;;1.05;0.90;;;18.30;60.20;;;;;;5089049;28;20233;-71
2024/01/01 10:48:34;;;;;;;1.30;0.95;;;18.30;60.20;;;;;;5092799;28;20216;-71
2024/01/01 10:51:21;;;;;;;1.20;1.00;;;18.30;60.30;;;;;;5098173;28;20188;-71
2024/01/01 10:54:30;;;;;;;1.77;0.90;;;18.30;60.30;;;;;;5094751;28;20201;-71
2024/01/01 10:57:33;;;;;;;1.98;1.20;;;18.30;60.20;;;;;;5073067;28;20192;-70
2024/01/01 11:00:30;;;;;;;1.27;1.17;;;18.30;60.20;;;;;;5067221;28;20193;-70
2024/01/01 11:02:57;;;;;;;1.23;1.08;;;18.30;60.20;;;;;;5089829;28;20291;-70
2024/01/01 11:05:34;;;;;;;1.02;0.90;;;18.30;60.30;;;;;;5106227;28;20196;-70
2024/01/01 11:08:03;;;;;;;1.40;1.27;;;18.30;60.20;;;;;;5090579;28;20662;-71
2024/01/01 11:10:42;;;;;;;0.95;0.85;;;18.30;60.20;;;;;;5074221;28;20184;-70
2024/01/01 11:13:26;;;;;;;1.35;0.90;;;18.30;60.20;;;;;;5076922;28;20764;-71
2024/01/01 11:16:00;;;;;;;1.15;0.80;;;18.30;60.20;;;;;;5073977;28;20185;-70
2024/01/01 11:18:37;;;;;;;1.05;0.95;;;18.30;60.20;;;;;;5086314;28;20230;-71
2024/01/01 11:21:07;;;;;;;2.28;1.10;;;18.30;60.30;;;;;;5087701;28;20176;-71
2024/01/01 11:23:42;;;;;;;1.13;1.02;;;18.30;60.20;;;;;;5098411;28;20200;-70
2024/01/01 11:26:26;;;;;;;1.27;1.10;;;18.30;60.30;;;;;;5090749;28;20683;-70
2024/01/01 11:28:58;;;;;;;1.83;0.90;;;18.30;60.20;;;;;;5076976;28;20560;-70
2024/01/01 11:31:26;;;;;;;1.02;1.00;;;18.30;60.20;;;;;;5097383;28;20220;-70
2024/01/01 11:34:05;;;;;;;1.65;1.05;;;18.30;60.20;;;;;;5087680;28;20199;-71
2024/01/01 11:36:31;;;;;;;1.10;1.00;;;18.30;60.20;;;;;;5093504;28;20190;-71
2024/01/01 11:38:58;;;;;;;1.45;1.13;;;18.30;60.20;;;;;;5094173;28;20195;-71
2024/01/01 11:41:29;;;;;;;1.00;0.90;;;18.30;60.20;;;;;;5100948;28;20192;-71
2024/01/01 11:44:10;;;;;;;1.38;1.00;;;18.40;60.30;;;;;;5074612;28;20633;-71
2024/01/01 11:46:37;;;;;;;0.75;0.75;;;18.30;60.20;;;;;;5094451;28;20290;-71
2024/01/01 11:49:03;;;;;;;1.58;1.00;;;18.30;60.30;;;;;;5096355;28;20244;-69
2024/01/01 11:51:32;;;;;;;0.90;0.80;;;18.30;60.30;;;;;;5109596;28;20180;-71
2024/01/01 11:54:10;;;;;;;1.25;1.05;;;18.30;60.30;;;;;;5096454;28;20294;-70
2024/01/01 11:56:37;;;;;;;1.67;0.88;;;18.30;60.30;;;;;;5073474;28;20275;-70
2024/01/01 11:59:06;;;;;;;2.10;1.05;;;18.30;60.30;;;;;;5091311;28;20209;-71
2024/01/01 12:01:38;;;;;;;1.55;1.20;;;18.30;60.30;;;;;;5078264;28;20180;-70
2024/01/01 12:04:07;;;;;;;1.02;1.00;;;18.30;60.20;;;;;;5083591;28;20303;-71
2024/01/01 12:06:34;;;;;;;1.77;1.13;;;18.30;60.40;;;;;;5108165;27;20200;-71
2024/01/01 12:09:12;;;;;;;1.27;0.90;;;18.30;60.20;;;;;;5110479;28;20196;-70
2024/01/01 12:11:42;;;;;;;2.17;1.10;;;18.30;60.30;;;;;;5100796;28;20196;-70
2024/01/01 12:14:09;;;;;;;2.03;1.23;;;18.30;60.30;;;;;;5101940;28;20212;-71
2024/01/01 12:16:36;;;;;;;1.20;1.10;;;18.30;60.30;;;;;;5081764;28;20193;-72
2024/01/01 12:19:12;;;;;;;1.05;0.95;;;18.30;60.30;;;;;;5102075;28;20188;-70
2024/01/01 12:21:45;;;;;;;3.00;1.30;;;18.30;60.40;;;;;;5096180;28;20184;-70
2024/01/01 12:24:22;;;;;;;1.85;1.40;;;18.30;60.40;;;;;;5094629;28;20220;-71
2024/01/01 12:26:51;;;;;;;1.13;0.93;;;18.30;60.30;;;;;;5079870;28;20300;-71
2024/01/01 12:29:20;;;;;;;1.30;0.90;;;18.30;60.30;;;;;;5086923;28;20552;-72
2024/01/01 12:31:50;;;;;;;2.35;1.00;;;18.30;60.20;;;;;;5095115;28;20209;-71
2024/01/01 12:34:19;;;;;;;1.75;1.20;;;18.30;60.20;;;;;;5098788;28;20204;-71
2024/01/01 12:36:47;;;;;;;1.95;0.98;;;18.30;60.20;;;;;;5077866;28;20245;-71
2024/01/01 12:39:17;;;;;;;1.70;0.88;;;18.30;60.20;;;;;;5110661;28;20185;-70
2024/01/01 12:41:43;;;;;;;1.25;1.08;;;18.30;60.20;;;;;;5093549;28;20181;-71
2024/01/01 12:44:09;;;;;;;1.10;1.00;;;18.30;60.20;;;;;;5110567;28;20257;-70
2024/01/01 12:46:35;;;;;;;1.55;1.00;;;18.40;60.30;;;;;;5096459;28;20208;-71